sensor_id;sensor_type;location;lat;lon;timestamp;temperature;humidity
36206;DHT22;22242;48.796;9.930;2023-02-19T00:00:12;8.20;99.90
36206;DHT22;22242;48.796;9.930;2023-02-19T00:02:41;8.20;99.90
36206;DHT22;22242;48.796;9.930;2023-02-19T00:05:10;8.10;99.90
36206;DHT22;22242;48.796;9.930;2023-02-19T00:07:37;8.20;99.90
36206;DHT22;22242;48.796;9.930;2023-02-19T00:10:03;8.20;99.90
36206;DHT22;22242;48.796;9.930;2023-02-19T00:12:31;8.30;99.90
36206;DHT22;22242;48.796;9.930;2023-02-19T00:14:59;8.30;99.90
36206;DHT22;22242;48.796;9.930;2023-02-19T00:17:27;8.30;99.90
36206;DHT22;22242;48.796;9.930;2023-02-19T00:19:54;8.20;99.90
36206;DHT22;22242;48.796;9.930;2023-02-19T00:22:21;8.20;99.90
36206;DHT22;22242;48.796;9.930;2023-02-19T00:24:48;8.30;99.90
36206;DHT22;22242;48.796;9.930;2023-02-19T00:27:15;8.30;99.90
36206;DHT22;22242;48.796;9.930;2023-02-19T00:29:42;8.30;99.90
36206;DHT22;22242;48.796;9.930;2023-02-19T00:32:10;8.30;99.90
36206;DHT22;22242;48.796;9.930;2023-02-19T00:34:38;8.30;99.90
36206;DHT22;22242;48.796;9.930;2023-02-19T00:37:05;8.30;99.90
36206;DHT22;22242;48.796;9.930;2023-02-19T00:39:32;8.30;99.90
36206;DHT22;22242;48.796;9.930;2023-02-19T00:41:59;8.30;99.90
36206;DHT22;22242;48.796;9.930;2023-02-19T00:44:26;8.30;99.90
36206;DHT22;22242;48.796;9.930;2023-02-19T00:46:53;8.30;99.90
36206;DHT22;22242;48.796;9.930;2023-02-19T00:49:22;8.20;99.90
36206;DHT22;22242;48.796;9.930;2023-02-19T00:51:51;8.30;99.90
36206;DHT22;22242;48.796;9.930;2023-02-19T00:54:18;8.30;99.90
36206;DHT22;22242;48.796;9.930;2023-02-19T00:56:47;8.30;99.90
36206;DHT22;22242;48.796;9.930;2023-02-19T00:59:14;8.30;99.90
36206;DHT22;22242;48.796;9.930;2023-02-19T01:01:42;8.30;99.90
36206;DHT22;22242;48.796;9.930;2023-02-19T01:04:10;8.20;99.90
36206;DHT22;22242;48.796;9.930;2023-02-19T01:06:39;8.20;99.90
36206;DHT22;22242;48.796;9.930;2023-02-19T01:09:05;8.20;99.90
36206;DHT22;22242;48.796;9.930;2023-02-19T01:11:33;8.20;99.90
36206;DHT22;22242;48.796;9.930;2023-02-19T01:14:01;8.20;99.90
36206;DHT22;22242;48.796;9.930;2023-02-19T01:16:28;8.20;99.90
36206;DHT22;22242;48.796;9.930;2023-02-19T01:18:56;8.20;99.90
36206;DHT22;22242;48.796;9.930;2023-02-19T01:21:25;8.20;99.90
36206;DHT22;22242;48.796;9.930;2023-02-19T01:23:55;8.20;99.90
36206;DHT22;22242;48.796;9.930;2023-02-19T01:26:26;8.20;99.90
36206;DHT22;22242;48.796;9.930;2023-02-19T01:28:53;8.30;99.90
36206;DHT22;22242;48.796;9.930;2023-02-19T01:31:22;8.20;99.90
36206;DHT22;22242;48.796;9.930;2023-02-19T01:33:52;8.30;99.90
36206;DHT22;22242;48.796;9.930;2023-02-19T01:36:19;8.20;99.90
36206;DHT22;22242;48.796;9.930;2023-02-19T01:38:46;8.20;99.90
36206;DHT22;22242;48.796;9.930;2023-02-19T01:41:17;8.20;99.90
36206;DHT22;22242;48.796;9.930;2023-02-19T01:44:01;8.20;99.90
36206;DHT22;22242;48.796;9.930;2023-02-19T01:46:29;8.20;99.90
36206;DHT22;22242;48.796;9.930;2023-02-19T01:48:59;8.10;99.90
36206;DHT22;22242;48.796;9.930;2023-02-19T01:51:29;8.20;99.90
36206;DHT22;22242;48.796;9.930;2023-02-19T01:54:01;8.20;99.90
36206;DHT22;22242;48.796;9.930;2023-02-19T01:56:32;8.20;99.90
36206;DHT22;22242;48.796;9.930;2023-02-19T01:59:00;8.20;99.90
36206;DHT22;22242;48.796;9.930;2023-02-19T02:01:27;8.10;99.90
36206;DHT22;22242;48.796;9.930;2023-02-19T02:03:54;8.20;99.90
36206;DHT22;22242;48.796;9.930;2023-02-19T02:06:23;8.10;99.90
36206;DHT22;22242;48.796;9.930;2023-02-19T02:08:54;8.20;99.90
36206;DHT22;22242;48.796;9.930;2023-02-19T02:11:43;8.10;99.90
36206;DHT22;22242;48.796;9.930;2023-02-19T02:14:11;8.10;99.90
36206;DHT22;22242;48.796;9.930;2023-02-19T02:16:54;8.10;99.90
36206;DHT22;22242;48.796;9.930;2023-02-19T02:19:37;8.20;99.90
36206;DHT22;22242;48.796;9.930;2023-02-19T02:22:14;8.20;99.90
36206;DHT22;22242;48.796;9.930;2023-02-19T02:25:17;8.10;99.90
36206;DHT22;22242;48.796;9.930;2023-02-19T02:28:00;8.10;99.90
36206;DHT22;22242;48.796;9.930;2023-02-19T02:30:38;8.10;99.90
36206;DHT22;22242;48.796;9.930;2023-02-19T02:33:19;8.20;99.90
36206;DHT22;22242;48.796;9.930;2023-02-19T02:35:52;8.10;99.90
36206;DHT22;22242;48.796;9.930;2023-02-19T02:38:23;8.00;99.90
36206;DHT22;22242;48.796;9.930;2023-02-19T02:40:53;8.10;99.90
36206;DHT22;22242;48.796;9.930;2023-02-19T02:43:21;8.10;99.90
36206;DHT22;22242;48.796;9.930;2023-02-19T02:45:49;8.10;99.90
36206;DHT22;22242;48.796;9.930;2023-02-19T02:48:37;8.10;99.90
36206;DHT22;22242;48.796;9.930;2023-02-19T02:51:11;8.10;99.90
36206;DHT22;22242;48.796;9.930;2023-02-19T02:53:53;8.10;99.90
36206;DHT22;22242;48.796;9.930;2023-02-19T02:56:40;8.10;99.90
36206;DHT22;22242;48.796;9.930;2023-02-19T02:59:09;8.20;99.90
36206;DHT22;22242;48.796;9.930;2023-02-19T03:01:41;8.20;99.90
36206;DHT22;22242;48.796;9.930;2023-02-19T03:04:32;8.10;99.90
36206;DHT22;22242;48.796;9.930;2023-02-19T03:07:05;8.20;99.90
36206;DHT22;22242;48.796;9.930;2023-02-19T03:09:38;8.20;99.90
36206;DHT22;22242;48.796;9.930;2023-02-19T03:12:11;8.20;99.90
36206;DHT22;22242;48.796;9.930;2023-02-19T03:15:00;8.10;99.90
36206;DHT22;22242;48.796;9.930;2023-02-19T03:18:07;8.10;99.90
36206;DHT22;22242;48.796;9.930;2023-02-19T03:20:55;8.10;99.90
36206;DHT22;22242;48.796;9.930;2023-02-19T03:23:27;8.10;99.90
36206;DHT22;22242;48.796;9.930;2023-02-19T03:26:10;8.10;99.90
36206;DHT22;22242;48.796;9.930;2023-02-19T03:28:48;8.10;99.90
36206;DHT22;22242;48.796;9.930;2023-02-19T03:31:37;8.10;99.90
36206;DHT22;22242;48.796;9.930;2023-02-19T03:34:10;8.10;99.90
36206;DHT22;22242;48.796;9.930;2023-02-19T03:36:44;8.10;99.90
36206;DHT22;22242;48.796;9.930;2023-02-19T03:39:14;8.10;99.90
36206;DHT22;22242;48.796;9.930;2023-02-19T03:41:50;8.10;99.90
36206;DHT22;22242;48.796;9.930;2023-02-19T03:44:24;8.10;99.90
36206;DHT22;22242;48.796;9.930;2023-02-19T03:46:57;8.10;99.90
36206;DHT22;22242;48.796;9.930;2023-02-19T03:49:37;8.10;99.90
36206;DHT22;22242;48.796;9.930;2023-02-19T03:52:12;8.10;99.90
36206;DHT22;22242;48.796;9.930;2023-02-19T03:54:47;8.10;99.90
36206;DHT22;22242;48.796;9.930;2023-02-19T03:57:20;8.10;99.90
36206;DHT22;22242;48.796;9.930;2023-02-19T03:59:54;8.10;99.90
36206;DHT22;22242;48.796;9.930;2023-02-19T04:02:27;8.10;99.90
36206;DHT22;22242;48.796;9.930;2023-02-19T04:05:02;8.20;99.90
36206;DHT22;22242;48.796;9.930;2023-02-19T04:07:33;8.20;99.90
36206;DHT22;22242;48.796;9.930;2023-02-19T04:10:02;8.10;99.90
36206;DHT22;22242;48.796;9.930;2023-02-19T04:12:30;8.10;99.90
36206;DHT22;22242;48.796;9.930;2023-02-19T04:15:02;8.10;99.90
36206;DHT22;22242;48.796;9.930;2023-02-19T04:17:33;8.10;99.90
36206;DHT22;22242;48.796;9.930;2023-02-19T04:20:06;8.10;99.90
36206;DHT22;22242;48.796;9.930;2023-02-19T04:22:35;8.10;99.90
36206;DHT22;22242;48.796;9.930;2023-02-19T04:25:03;8.10;99.90
36206;DHT22;22242;48.796;9.930;2023-02-19T04:27:30;8.00;99.90
36206;DHT22;22242;48.796;9.930;2023-02-19T04:29:59;8.00;99.90
36206;DHT22;22242;48.796;9.930;2023-02-19T04:32:26;8.10;99.90
36206;DHT22;22242;48.796;9.930;2023-02-19T04:34:53;8.10;99.90
36206;DHT22;22242;48.796;9.930;2023-02-19T04:37:21;8.00;99.90
36206;DHT22;22242;48.796;9.930;2023-02-19T04:39:48;8.00;99.90
36206;DHT22;22242;48.796;9.930;2023-02-19T04:42:15;8.00;99.90
36206;DHT22;22242;48.796;9.930;2023-02-19T04:44:43;8.00;99.90
36206;DHT22;22242;48.796;9.930;2023-02-19T04:47:10;8.00;99.90
36206;DHT22;22242;48.796;9.930;2023-02-19T04:49:36;8.00;99.90
36206;DHT22;22242;48.796;9.930;2023-02-19T04:52:03;7.90;99.90
36206;DHT22;22242;48.796;9.930;2023-02-19T04:54:32;7.90;99.90
36206;DHT22;22242;48.796;9.930;2023-02-19T04:56:59;7.90;99.90
36206;DHT22;22242;48.796;9.930;2023-02-19T04:59:26;7.80;99.90
36206;DHT22;22242;48.796;9.930;2023-02-19T05:01:53;7.80;99.90
36206;DHT22;22242;48.796;9.930;2023-02-19T05:04:20;7.80;99.90
36206;DHT22;22242;48.796;9.930;2023-02-19T05:06:48;7.80;99.90
36206;DHT22;22242;48.796;9.930;2023-02-19T05:09:15;7.80;99.90
36206;DHT22;22242;48.796;9.930;2023-02-19T05:11:44;7.80;99.90
36206;DHT22;22242;48.796;9.930;2023-02-19T05:14:11;7.80;99.90
36206;DHT22;22242;48.796;9.930;2023-02-19T05:16:39;7.70;99.90
36206;DHT22;22242;48.796;9.930;2023-02-19T05:19:06;7.70;99.90
36206;DHT22;22242;48.796;9.930;2023-02-19T05:21:32;7.60;99.90
36206;DHT22;22242;48.796;9.930;2023-02-19T05:23:59;7.70;99.90
36206;DHT22;22242;48.796;9.930;2023-02-19T05:26:26;7.70;99.90
36206;DHT22;22242;48.796;9.930;2023-02-19T05:28:55;7.70;99.90
36206;DHT22;22242;48.796;9.930;2023-02-19T05:31:22;7.60;99.90
36206;DHT22;22242;48.796;9.930;2023-02-19T05:33:49;7.60;99.90
36206;DHT22;22242;48.796;9.930;2023-02-19T05:36:19;7.60;99.90
36206;DHT22;22242;48.796;9.930;2023-02-19T05:38:48;7.50;99.90
36206;DHT22;22242;48.796;9.930;2023-02-19T05:41:19;7.50;99.90
36206;DHT22;22242;48.796;9.930;2023-02-19T05:43:47;7.50;99.90
36206;DHT22;22242;48.796;9.930;2023-02-19T05:46:17;7.50;99.90
36206;DHT22;22242;48.796;9.930;2023-02-19T05:48:45;7.50;99.90
36206;DHT22;22242;48.796;9.930;2023-02-19T05:51:14;7.40;99.90
36206;DHT22;22242;48.796;9.930;2023-02-19T05:53:42;7.30;99.90
36206;DHT22;22242;48.796;9.930;2023-02-19T05:56:26;7.30;99.90
36206;DHT22;22242;48.796;9.930;2023-02-19T05:58:54;7.20;99.90
36206;DHT22;22242;48.796;9.930;2023-02-19T06:01:24;7.30;99.90
36206;DHT22;22242;48.796;9.930;2023-02-19T06:03:51;7.20;99.90
36206;DHT22;22242;48.796;9.930;2023-02-19T06:06:19;7.20;99.90
36206;DHT22;22242;48.796;9.930;2023-02-19T06:08:48;7.20;99.90
36206;DHT22;22242;48.796;9.930;2023-02-19T06:11:15;7.20;99.90
36206;DHT22;22242;48.796;9.930;2023-02-19T06:13:43;7.20;99.90
36206;DHT22;22242;48.796;9.930;2023-02-19T06:16:10;7.10;99.90
36206;DHT22;22242;48.796;9.930;2023-02-19T06:18:38;7.10;99.90
36206;DHT22;22242;48.796;9.930;2023-02-19T06:21:08;7.10;99.90
36206;DHT22;22242;48.796;9.930;2023-02-19T06:23:36;7.10;99.90
36206;DHT22;22242;48.796;9.930;2023-02-19T06:26:06;7.10;99.90
36206;DHT22;22242;48.796;9.930;2023-02-19T06:28:33;7.20;99.90
36206;DHT22;22242;48.796;9.930;2023-02-19T06:31:00;7.20;99.90
36206;DHT22;22242;48.796;9.930;2023-02-19T06:33:27;7.20;99.90
36206;DHT22;22242;48.796;9.930;2023-02-19T06:35:58;7.10;99.90
36206;DHT22;22242;48.796;9.930;2023-02-19T06:38:26;7.10;99.90
36206;DHT22;22242;48.796;9.930;2023-02-19T06:40:53;7.20;99.90
36206;DHT22;22242;48.796;9.930;2023-02-19T06:43:20;7.20;99.90
36206;DHT22;22242;48.796;9.930;2023-02-19T06:45:47;7.20;99.90
36206;DHT22;22242;48.796;9.930;2023-02-19T06:48:14;7.10;99.90
36206;DHT22;22242;48.796;9.930;2023-02-19T06:50:41;7.20;99.90
36206;DHT22;22242;48.796;9.930;2023-02-19T06:53:10;7.20;99.90
36206;DHT22;22242;48.796;9.930;2023-02-19T06:55:37;7.10;99.90
36206;DHT22;22242;48.796;9.930;2023-02-19T06:58:05;7.20;99.90
36206;DHT22;22242;48.796;9.930;2023-02-19T07:00:33;7.20;99.90
36206;DHT22;22242;48.796;9.930;2023-02-19T07:03:00;7.20;99.90
36206;DHT22;22242;48.796;9.930;2023-02-19T07:05:27;7.20;99.90
36206;DHT22;22242;48.796;9.930;2023-02-19T07:07:54;7.20;99.90
36206;DHT22;22242;48.796;9.930;2023-02-19T07:10:23;7.20;99.90
36206;DHT22;22242;48.796;9.930;2023-02-19T07:12:50;7.10;99.90
36206;DHT22;22242;48.796;9.930;2023-02-19T07:15:17;7.20;99.90
36206;DHT22;22242;48.796;9.930;2023-02-19T07:17:44;7.20;99.90
36206;DHT22;22242;48.796;9.930;2023-02-19T07:20:12;7.20;99.90
36206;DHT22;22242;48.796;9.930;2023-02-19T07:22:39;7.20;99.90
36206;DHT22;22242;48.796;9.930;2023-02-19T07:25:06;7.10;99.90
36206;DHT22;22242;48.796;9.930;2023-02-19T07:27:35;7.20;99.90
36206;DHT22;22242;48.796;9.930;2023-02-19T07:30:03;7.20;99.90
36206;DHT22;22242;48.796;9.930;2023-02-19T07:32:30;7.30;99.90
36206;DHT22;22242;48.796;9.930;2023-02-19T07:34:57;7.20;99.90
36206;DHT22;22242;48.796;9.930;2023-02-19T07:37:24;7.30;99.90
36206;DHT22;22242;48.796;9.930;2023-02-19T07:39:51;7.20;99.90
36206;DHT22;22242;48.796;9.930;2023-02-19T07:42:18;7.30;99.90
36206;DHT22;22242;48.796;9.930;2023-02-19T07:44:46;7.30;99.90
36206;DHT22;22242;48.796;9.930;2023-02-19T07:47:13;7.50;99.90
36206;DHT22;22242;48.796;9.930;2023-02-19T07:49:40;7.60;99.90
36206;DHT22;22242;48.796;9.930;2023-02-19T07:52:07;7.60;99.90
36206;DHT22;22242;48.796;9.930;2023-02-19T07:54:34;7.60;99.90
36206;DHT22;22242;48.796;9.930;2023-02-19T07:57:01;7.70;99.90
36206;DHT22;22242;48.796;9.930;2023-02-19T07:59:28;7.70;99.90
36206;DHT22;22242;48.796;9.930;2023-02-19T08:01:56;7.80;99.90
36206;DHT22;22242;48.796;9.930;2023-02-19T08:04:41;7.70;99.90
36206;DHT22;22242;48.796;9.930;2023-02-19T08:07:08;7.80;99.90
36206;DHT22;22242;48.796;9.930;2023-02-19T08:09:35;7.80;99.90
36206;DHT22;22242;48.796;9.930;2023-02-19T08:12:03;7.80;99.90
36206;DHT22;22242;48.796;9.930;2023-02-19T08:14:47;7.90;99.90
36206;DHT22;22242;48.796;9.930;2023-02-19T08:17:16;7.90;99.90
36206;DHT22;22242;48.796;9.930;2023-02-19T08:19:43;7.90;99.90
36206;DHT22;22242;48.796;9.930;2023-02-19T08:22:10;8.00;99.90
36206;DHT22;22242;48.796;9.930;2023-02-19T08:24:37;8.20;99.90
36206;DHT22;22242;48.796;9.930;2023-02-19T08:27:07;8.30;99.90
36206;DHT22;22242;48.796;9.930;2023-02-19T08:29:34;8.30;99.90
36206;DHT22;22242;48.796;9.930;2023-02-19T08:32:01;8.30;99.90
36206;DHT22;22242;48.796;9.930;2023-02-19T08:34:29;8.30;99.90
36206;DHT22;22242;48.796;9.930;2023-02-19T08:36:57;8.30;99.90
36206;DHT22;22242;48.796;9.930;2023-02-19T08:39:25;8.20;99.90
36206;DHT22;22242;48.796;9.930;2023-02-19T08:41:52;8.30;99.90
36206;DHT22;22242;48.796;9.930;2023-02-19T08:44:19;8.50;99.90
36206;DHT22;22242;48.796;9.930;2023-02-19T08:46:46;9.20;99.90
36206;DHT22;22242;48.796;9.930;2023-02-19T08:49:13;9.30;99.90
36206;DHT22;22242;48.796;9.930;2023-02-19T08:51:42;9.20;99.90
36206;DHT22;22242;48.796;9.930;2023-02-19T08:54:09;8.70;99.90
36206;DHT22;22242;48.796;9.930;2023-02-19T08:56:36;8.70;99.90
36206;DHT22;22242;48.796;9.930;2023-02-19T08:59:03;8.60;99.90
36206;DHT22;22242;48.796;9.930;2023-02-19T09:01:30;8.60;99.90
36206;DHT22;22242;48.796;9.930;2023-02-19T09:03:57;8.50;99.90
36206;DHT22;22242;48.796;9.930;2023-02-19T09:06:24;8.60;99.90
36206;DHT22;22242;48.796;9.930;2023-02-19T09:08:52;8.60;99.90
36206;DHT22;22242;48.796;9.930;2023-02-19T09:11:20;8.60;99.90
36206;DHT22;22242;48.796;9.930;2023-02-19T09:13:46;8.70;99.90
36206;DHT22;22242;48.796;9.930;2023-02-19T09:16:13;8.70;99.90
36206;DHT22;22242;48.796;9.930;2023-02-19T09:18:40;8.80;99.90
36206;DHT22;22242;48.796;9.930;2023-02-19T09:21:07;8.70;99.90
36206;DHT22;22242;48.796;9.930;2023-02-19T09:23:35;8.70;99.90
36206;DHT22;22242;48.796;9.930;2023-02-19T09:26:05;8.60;99.90
36206;DHT22;22242;48.796;9.930;2023-02-19T09:28:35;8.50;99.90
36206;DHT22;22242;48.796;9.930;2023-02-19T09:31:04;8.60;99.90
36206;DHT22;22242;48.796;9.930;2023-02-19T09:33:31;8.60;99.90
36206;DHT22;22242;48.796;9.930;2023-02-19T09:35:58;8.50;99.90
36206;DHT22;22242;48.796;9.930;2023-02-19T09:38:26;8.60;99.90
36206;DHT22;22242;48.796;9.930;2023-02-19T09:40:54;8.70;99.90
36206;DHT22;22242;48.796;9.930;2023-02-19T09:43:26;8.70;99.90
36206;DHT22;22242;48.796;9.930;2023-02-19T09:46:00;8.80;99.90
36206;DHT22;22242;48.796;9.930;2023-02-19T09:48:28;8.90;99.90
36206;DHT22;22242;48.796;9.930;2023-02-19T09:50:56;8.90;99.90
36206;DHT22;22242;48.796;9.930;2023-02-19T09:53:28;8.90;99.90
36206;DHT22;22242;48.796;9.930;2023-02-19T09:56:00;9.10;99.90
36206;DHT22;22242;48.796;9.930;2023-02-19T09:58:32;8.90;99.90
36206;DHT22;22242;48.796;9.930;2023-02-19T10:01:02;8.90;99.90
36206;DHT22;22242;48.796;9.930;2023-02-19T10:03:32;9.10;99.90
36206;DHT22;22242;48.796;9.930;2023-02-19T10:06:03;9.00;99.90
36206;DHT22;22242;48.796;9.930;2023-02-19T10:08:32;9.00;99.90
36206;DHT22;22242;48.796;9.930;2023-02-19T10:11:00;9.20;99.90
36206;DHT22;22242;48.796;9.930;2023-02-19T10:13:33;9.00;99.90
36206;DHT22;22242;48.796;9.930;2023-02-19T10:16:04;8.90;99.90
36206;DHT22;22242;48.796;9.930;2023-02-19T10:18:35;8.80;99.90
36206;DHT22;22242;48.796;9.930;2023-02-19T10:21:04;8.90;99.90
36206;DHT22;22242;48.796;9.930;2023-02-19T10:23:32;8.90;99.90
36206;DHT22;22242;48.796;9.930;2023-02-19T10:25:59;9.00;99.90
36206;DHT22;22242;48.796;9.930;2023-02-19T10:28:30;9.00;99.90
36206;DHT22;22242;48.796;9.930;2023-02-19T10:31:00;9.10;99.90
36206;DHT22;22242;48.796;9.930;2023-02-19T10:33:27;9.10;99.90
36206;DHT22;22242;48.796;9.930;2023-02-19T10:35:56;9.10;99.90
36206;DHT22;22242;48.796;9.930;2023-02-19T10:38:26;9.20;99.90
36206;DHT22;22242;48.796;9.930;2023-02-19T10:41:00;9.30;99.90
36206;DHT22;22242;48.796;9.930;2023-02-19T10:43:31;9.30;99.90
36206;DHT22;22242;48.796;9.930;2023-02-19T10:46:01;9.40;99.90
36206;DHT22;22242;48.796;9.930;2023-02-19T10:48:31;9.40;99.90
36206;DHT22;22242;48.796;9.930;2023-02-19T10:51:03;9.60;99.90
36206;DHT22;22242;48.796;9.930;2023-02-19T10:53:43;9.80;99.90
36206;DHT22;22242;48.796;9.930;2023-02-19T10:56:13;9.70;99.90
36206;DHT22;22242;48.796;9.930;2023-02-19T10:58:43;9.70;99.90
36206;DHT22;22242;48.796;9.930;2023-02-19T11:01:17;9.60;99.90
36206;DHT22;22242;48.796;9.930;2023-02-19T11:03:48;9.80;99.90
36206;DHT22;22242;48.796;9.930;2023-02-19T11:06:18;9.70;99.90
36206;DHT22;22242;48.796;9.930;2023-02-19T11:08:54;9.80;99.90
36206;DHT22;22242;48.796;9.930;2023-02-19T11:11:32;9.70;99.90
36206;DHT22;22242;48.796;9.930;2023-02-19T11:14:04;9.80;99.90
36206;DHT22;22242;48.796;9.930;2023-02-19T11:16:41;10.10;99.90
36206;DHT22;22242;48.796;9.930;2023-02-19T11:19:34;10.20;99.90
36206;DHT22;22242;48.796;9.930;2023-02-19T11:22:17;9.70;99.90
36206;DHT22;22242;48.796;9.930;2023-02-19T11:24:47;9.70;99.90
36206;DHT22;22242;48.796;9.930;2023-02-19T11:27:17;9.60;99.90
36206;DHT22;22242;48.796;9.930;2023-02-19T11:29:46;9.70;99.90
36206;DHT22;22242;48.796;9.930;2023-02-19T11:32:24;9.70;99.90
36206;DHT22;22242;48.796;9.930;2023-02-19T11:35:03;9.70;99.90
36206;DHT22;22242;48.796;9.930;2023-02-19T11:37:52;9.70;99.90
36206;DHT22;22242;48.796;9.930;2023-02-19T11:40:23;9.50;99.90
36206;DHT22;22242;48.796;9.930;2023-02-19T11:42:58;9.50;99.90
36206;DHT22;22242;48.796;9.930;2023-02-19T11:45:37;9.40;99.90
36206;DHT22;22242;48.796;9.930;2023-02-19T11:48:36;9.40;99.90
36206;DHT22;22242;48.796;9.930;2023-02-19T11:51:13;9.30;99.90
36206;DHT22;22242;48.796;9.930;2023-02-19T11:53:46;9.40;99.90
36206;DHT22;22242;48.796;9.930;2023-02-19T11:56:15;9.30;99.90
36206;DHT22;22242;48.796;9.930;2023-02-19T11:58:56;9.40;99.90
36206;DHT22;22242;48.796;9.930;2023-02-19T12:01:38;9.30;99.90
36206;DHT22;22242;48.796;9.930;2023-02-19T12:07:30;9.00;99.90
36206;DHT22;22242;48.796;9.930;2023-02-19T12:10:08;8.90;99.90
36206;DHT22;22242;48.796;9.930;2023-02-19T12:12:47;9.00;99.90
36206;DHT22;22242;48.796;9.930;2023-02-19T12:15:28;9.20;99.90
36206;DHT22;22242;48.796;9.930;2023-02-19T12:18:18;9.30;99.90
36206;DHT22;22242;48.796;9.930;2023-02-19T12:20:53;9.50;99.90
36206;DHT22;22242;48.796;9.930;2023-02-19T12:23:41;9.80;99.90
36206;DHT22;22242;48.796;9.930;2023-02-19T12:26:20;10.00;99.90
36206;DHT22;22242;48.796;9.930;2023-02-19T12:29:03;10.30;99.90
36206;DHT22;22242;48.796;9.930;2023-02-19T12:31:41;10.60;99.90
36206;DHT22;22242;48.796;9.930;2023-02-19T12:34:23;11.00;99.90
36206;DHT22;22242;48.796;9.930;2023-02-19T12:37:06;11.00;99.90
36206;DHT22;22242;48.796;9.930;2023-02-19T12:39:41;11.30;99.90
36206;DHT22;22242;48.796;9.930;2023-02-19T12:42:16;11.50;99.90
36206;DHT22;22242;48.796;9.930;2023-02-19T12:44:49;11.10;99.90
36206;DHT22;22242;48.796;9.930;2023-02-19T12:47:20;10.70;99.90
36206;DHT22;22242;48.796;9.930;2023-02-19T12:49:59;10.30;99.90
36206;DHT22;22242;48.796;9.930;2023-02-19T12:52:32;9.90;99.90
36206;DHT22;22242;48.796;9.930;2023-02-19T12:55:09;9.80;99.90
36206;DHT22;22242;48.796;9.930;2023-02-19T12:57:38;9.70;99.90
36206;DHT22;22242;48.796;9.930;2023-02-19T13:00:16;9.70;99.90
36206;DHT22;22242;48.796;9.930;2023-02-19T13:02:53;9.60;99.90
36206;DHT22;22242;48.796;9.930;2023-02-19T13:05:30;9.50;99.90
36206;DHT22;22242;48.796;9.930;2023-02-19T13:08:03;9.40;99.90
36206;DHT22;22242;48.796;9.930;2023-02-19T13:10:37;9.50;99.90
36206;DHT22;22242;48.796;9.930;2023-02-19T13:13:13;9.60;99.90
36206;DHT22;22242;48.796;9.930;2023-02-19T13:15:43;9.60;99.90
36206;DHT22;22242;48.796;9.930;2023-02-19T13:18:17;9.70;99.90
36206;DHT22;22242;48.796;9.930;2023-02-19T13:20:46;9.70;99.90
36206;DHT22;22242;48.796;9.930;2023-02-19T13:23:20;9.80;99.90
36206;DHT22;22242;48.796;9.930;2023-02-19T13:26:19;9.80;99.90
36206;DHT22;22242;48.796;9.930;2023-02-19T13:29:00;9.70;99.90
36206;DHT22;22242;48.796;9.930;2023-02-19T13:34:52;9.30;99.90
36206;DHT22;22242;48.796;9.930;2023-02-19T13:37:24;9.20;99.90
36206;DHT22;22242;48.796;9.930;2023-02-19T13:39:52;9.50;99.90
36206;DHT22;22242;48.796;9.930;2023-02-19T13:42:24;9.80;99.90
36206;DHT22;22242;48.796;9.930;2023-02-19T13:44:52;9.90;99.90
36206;DHT22;22242;48.796;9.930;2023-02-19T13:47:46;9.90;99.90
36206;DHT22;22242;48.796;9.930;2023-02-19T13:50:19;10.00;99.90
36206;DHT22;22242;48.796;9.930;2023-02-19T13:52:48;10.00;99.90
36206;DHT22;22242;48.796;9.930;2023-02-19T13:55:48;9.80;99.90
36206;DHT22;22242;48.796;9.930;2023-02-19T13:58:52;9.50;99.90
36206;DHT22;22242;48.796;9.930;2023-02-19T14:04:45;9.20;99.90
36206;DHT22;22242;48.796;9.930;2023-02-19T14:07:50;9.00;99.90
36206;DHT22;22242;48.796;9.930;2023-02-19T14:13:55;8.80;99.90
36206;DHT22;22242;48.796;9.930;2023-02-19T14:16:48;9.10;99.90
36206;DHT22;22242;48.796;9.930;2023-02-19T14:22:59;9.00;99.90
36206;DHT22;22242;48.796;9.930;2023-02-19T14:25:32;8.70;99.90
36206;DHT22;22242;48.796;9.930;2023-02-19T14:28:01;8.40;99.90
36206;DHT22;22242;48.796;9.930;2023-02-19T14:30:31;8.20;99.90
36206;DHT22;22242;48.796;9.930;2023-02-19T14:33:01;8.30;99.90
36206;DHT22;22242;48.796;9.930;2023-02-19T14:35:33;8.10;99.90
36206;DHT22;22242;48.796;9.930;2023-02-19T14:38:03;8.30;99.90
36206;DHT22;22242;48.796;9.930;2023-02-19T14:40:34;8.20;99.90
36206;DHT22;22242;48.796;9.930;2023-02-19T14:43:04;8.50;99.90
36206;DHT22;22242;48.796;9.930;2023-02-19T14:45:38;8.40;99.90
36206;DHT22;22242;48.796;9.930;2023-02-19T14:48:15;8.50;99.90
36206;DHT22;22242;48.796;9.930;2023-02-19T14:50:46;8.60;99.90
36206;DHT22;22242;48.796;9.930;2023-02-19T14:53:16;8.60;99.90
36206;DHT22;22242;48.796;9.930;2023-02-19T14:55:45;8.60;99.90
36206;DHT22;22242;48.796;9.930;2023-02-19T14:58:15;8.60;99.90
36206;DHT22;22242;48.796;9.930;2023-02-19T15:00:43;8.60;99.90
36206;DHT22;22242;48.796;9.930;2023-02-19T15:05:53;8.30;99.90
36206;DHT22;22242;48.796;9.930;2023-02-19T15:08:26;8.40;99.90
36206;DHT22;22242;48.796;9.930;2023-02-19T15:10:55;8.20;99.90
36206;DHT22;22242;48.796;9.930;2023-02-19T15:13:24;8.20;99.90
36206;DHT22;22242;48.796;9.930;2023-02-19T15:15:53;8.20;99.90
36206;DHT22;22242;48.796;9.930;2023-02-19T15:18:23;8.20;99.90
36206;DHT22;22242;48.796;9.930;2023-02-19T15:20:57;8.20;99.90
36206;DHT22;22242;48.796;9.930;2023-02-19T15:23:27;8.30;99.90
36206;DHT22;22242;48.796;9.930;2023-02-19T15:25:56;8.20;99.90
36206;DHT22;22242;48.796;9.930;2023-02-19T15:28:30;8.10;99.90
36206;DHT22;22242;48.796;9.930;2023-02-19T15:31:17;8.20;99.90
36206;DHT22;22242;48.796;9.930;2023-02-19T15:33:49;8.20;99.90
36206;DHT22;22242;48.796;9.930;2023-02-19T15:36:24;8.10;99.90
36206;DHT22;22242;48.796;9.930;2023-02-19T15:38:55;8.10;99.90
36206;DHT22;22242;48.796;9.930;2023-02-19T15:41:25;8.10;99.90
36206;DHT22;22242;48.796;9.930;2023-02-19T15:43:58;8.00;99.90
36206;DHT22;22242;48.796;9.930;2023-02-19T15:46:28;8.10;99.90
36206;DHT22;22242;48.796;9.930;2023-02-19T15:48:59;8.00;99.90
36206;DHT22;22242;48.796;9.930;2023-02-19T15:51:33;8.00;99.90
36206;DHT22;22242;48.796;9.930;2023-02-19T15:54:11;7.90;99.90
36206;DHT22;22242;48.796;9.930;2023-02-19T15:56:43;7.90;99.90
36206;DHT22;22242;48.796;9.930;2023-02-19T15:59:18;7.90;99.90
36206;DHT22;22242;48.796;9.930;2023-02-19T16:01:47;7.90;99.90
36206;DHT22;22242;48.796;9.930;2023-02-19T16:04:15;7.90;99.90
36206;DHT22;22242;48.796;9.930;2023-02-19T16:06:52;7.90;99.90
36206;DHT22;22242;48.796;9.930;2023-02-19T16:09:22;7.90;99.90
36206;DHT22;22242;48.796;9.930;2023-02-19T16:11:54;7.90;99.90
36206;DHT22;22242;48.796;9.930;2023-02-19T16:14:26;7.90;99.90
36206;DHT22;22242;48.796;9.930;2023-02-19T16:16:56;7.90;99.90
36206;DHT22;22242;48.796;9.930;2023-02-19T16:19:27;7.80;99.90
36206;DHT22;22242;48.796;9.930;2023-02-19T16:21:57;7.90;99.90
36206;DHT22;22242;48.796;9.930;2023-02-19T16:24:30;7.90;99.90
36206;DHT22;22242;48.796;9.930;2023-02-19T16:26:58;7.80;99.90
36206;DHT22;22242;48.796;9.930;2023-02-19T16:29:27;7.80;99.90
36206;DHT22;22242;48.796;9.930;2023-02-19T16:31:55;7.90;99.90